sensor_id;sensor_type;location;lat;lon;timestamp;pressure;altitude;pressure_sealevel;temperature;humidity
56689;BME280;42565;53.342;-1.534;2023-05-21T00:01:53;99927.86;;;13.71;48.07
56689;BME280;42565;53.342;-1.534;2023-05-21T00:04:19;99924.83;;;14.66;46.45
56689;BME280;42565;53.342;-1.534;2023-05-21T00:06:46;99919.49;;;14.37;46.48
56689;BME280;42565;53.342;-1.534;2023-05-21T00:09:14;99917.68;;;14.28;46.09
56689;BME280;42565;53.342;-1.534;2023-05-21T00:11:41;99917.40;;;14.27;46.84
56689;BME280;42565;53.342;-1.534;2023-05-21T00:14:07;99913.02;;;14.12;48.20
56689;BME280;42565;53.342;-1.534;2023-05-21T00:16:34;99915.71;;;14.09;47.66
56689;BME280;42565;53.342;-1.534;2023-05-21T00:19:01;99918.55;;;13.90;47.68
56689;BME280;42565;53.342;-1.534;2023-05-21T00:21:29;99920.07;;;13.69;47.72
56689;BME280;42565;53.342;-1.534;2023-05-21T00:23:56;99919.92;;;14.07;47.13
56689;BME280;42565;53.342;-1.534;2023-05-21T00:26:23;99916.37;;;14.16;47.45
56689;BME280;42565;53.342;-1.534;2023-05-21T00:28:49;99917.39;;;13.98;47.84
56689;BME280;42565;53.342;-1.534;2023-05-21T00:31:16;99919.39;;;13.89;47.39
56689;BME280;42565;53.342;-1.534;2023-05-21T00:33:44;99921.19;;;14.15;47.83
56689;BME280;42565;53.342;-1.534;2023-05-21T00:36:11;99919.49;;;13.82;48.40
56689;BME280;42565;53.342;-1.534;2023-05-21T00:38:38;99920.73;;;14.10;48.58
56689;BME280;42565;53.342;-1.534;2023-05-21T00:41:06;99919.33;;;14.14;48.91
56689;BME280;42565;53.342;-1.534;2023-05-21T00:43:32;99921.95;;;14.03;48.14
56689;BME280;42565;53.342;-1.534;2023-05-21T00:45:59;99918.08;;;14.04;48.66
56689;BME280;42565;53.342;-1.534;2023-05-21T00:48:27;99921.75;;;13.59;49.64
56689;BME280;42565;53.342;-1.534;2023-05-21T00:50:53;99919.00;;;13.23;50.84
56689;BME280;42565;53.342;-1.534;2023-05-21T00:53:21;99918.27;;;12.70;51.87
56689;BME280;42565;53.342;-1.534;2023-05-21T00:55:48;99917.59;;;12.78;52.36
56689;BME280;42565;53.342;-1.534;2023-05-21T00:58:16;99916.36;;;11.78;53.61
56689;BME280;42565;53.342;-1.534;2023-05-21T01:00:43;99912.00;;;12.22;53.93
56689;BME280;42565;53.342;-1.534;2023-05-21T01:03:12;99908.11;;;12.04;54.52
56689;BME280;42565;53.342;-1.534;2023-05-21T01:05:40;99908.85;;;11.79;55.21
56689;BME280;42565;53.342;-1.534;2023-05-21T01:08:07;99905.96;;;12.10;54.67
56689;BME280;42565;53.342;-1.534;2023-05-21T01:10:34;99905.52;;;12.21;54.59
56689;BME280;42565;53.342;-1.534;2023-05-21T01:13:01;99905.62;;;12.27;54.30
56689;BME280;42565;53.342;-1.534;2023-05-21T01:15:29;99910.30;;;12.38;53.85
56689;BME280;42565;53.342;-1.534;2023-05-21T01:17:56;99907.23;;;12.50;53.77
56689;BME280;42565;53.342;-1.534;2023-05-21T01:20:24;99908.03;;;12.49;53.73
56689;BME280;42565;53.342;-1.534;2023-05-21T01:22:53;99908.97;;;12.22;54.09
56689;BME280;42565;53.342;-1.534;2023-05-21T01:25:21;99908.34;;;11.90;54.39
56689;BME280;42565;53.342;-1.534;2023-05-21T01:27:49;99911.44;;;12.22;54.52
56689;BME280;42565;53.342;-1.534;2023-05-21T01:30:16;99909.36;;;11.98;54.28
56689;BME280;42565;53.342;-1.534;2023-05-21T01:32:49;99907.03;;;12.69;53.66
56689;BME280;42565;53.342;-1.534;2023-05-21T01:35:21;99903.82;;;12.59;53.73
56689;BME280;42565;53.342;-1.534;2023-05-21T01:37:56;99904.17;;;12.58;53.31
56689;BME280;42565;53.342;-1.534;2023-05-21T01:40:31;99904.81;;;12.54;53.43
56689;BME280;42565;53.342;-1.534;2023-05-21T01:43:00;99905.03;;;12.43;53.26
56689;BME280;42565;53.342;-1.534;2023-05-21T01:45:31;99904.67;;;12.37;53.74
56689;BME280;42565;53.342;-1.534;2023-05-21T01:47:59;99902.05;;;12.17;54.11
56689;BME280;42565;53.342;-1.534;2023-05-21T01:50:26;99899.85;;;12.09;54.27
56689;BME280;42565;53.342;-1.534;2023-05-21T01:52:55;99903.26;;;12.48;53.77
56689;BME280;42565;53.342;-1.534;2023-05-21T01:55:23;99900.67;;;12.41;53.49
56689;BME280;42565;53.342;-1.534;2023-05-21T01:57:50;99893.13;;;12.37;54.37
56689;BME280;42565;53.342;-1.534;2023-05-21T02:00:18;99889.91;;;11.69;54.39
56689;BME280;42565;53.342;-1.534;2023-05-21T02:02:45;99890.07;;;11.94;54.87
56689;BME280;42565;53.342;-1.534;2023-05-21T02:05:13;99885.84;;;11.62;54.95
56689;BME280;42565;53.342;-1.534;2023-05-21T02:07:40;99881.79;;;11.86;54.49
56689;BME280;42565;53.342;-1.534;2023-05-21T02:10:09;99883.73;;;12.23;53.94
56689;BME280;42565;53.342;-1.534;2023-05-21T02:12:36;99878.95;;;12.62;52.95
56689;BME280;42565;53.342;-1.534;2023-05-21T02:15:04;99876.02;;;12.91;52.39
56689;BME280;42565;53.342;-1.534;2023-05-21T02:17:31;99874.67;;;13.46;50.86
56689;BME280;42565;53.342;-1.534;2023-05-21T02:19:58;99872.97;;;13.35;50.55
56689;BME280;42565;53.342;-1.534;2023-05-21T02:22:26;99871.50;;;12.92;51.31
56689;BME280;42565;53.342;-1.534;2023-05-21T02:24:53;99871.64;;;13.50;51.41
56689;BME280;42565;53.342;-1.534;2023-05-21T02:27:20;99872.76;;;12.80;51.97
56689;BME280;42565;53.342;-1.534;2023-05-21T02:29:47;99871.51;;;13.33;51.41
56689;BME280;42565;53.342;-1.534;2023-05-21T02:32:15;99865.01;;;12.35;51.69
56689;BME280;42565;53.342;-1.534;2023-05-21T02:34:41;99864.43;;;12.99;51.45
56689;BME280;42565;53.342;-1.534;2023-05-21T02:37:08;99858.63;;;12.42;52.45
56689;BME280;42565;53.342;-1.534;2023-05-21T02:39:36;99853.70;;;12.63;52.32
56689;BME280;42565;53.342;-1.534;2023-05-21T02:42:03;99853.85;;;12.25;53.20
56689;BME280;42565;53.342;-1.534;2023-05-21T02:44:30;99856.61;;;12.40;53.29
56689;BME280;42565;53.342;-1.534;2023-05-21T02:46:58;99860.08;;;12.13;53.36
56689;BME280;42565;53.342;-1.534;2023-05-21T02:49:24;99862.91;;;11.99;53.65
56689;BME280;42565;53.342;-1.534;2023-05-21T02:51:51;99859.84;;;11.82;54.08
56689;BME280;42565;53.342;-1.534;2023-05-21T02:54:18;99861.61;;;11.95;53.68
56689;BME280;42565;53.342;-1.534;2023-05-21T02:56:44;99863.37;;;11.91;54.13
56689;BME280;42565;53.342;-1.534;2023-05-21T02:59:12;99858.58;;;12.06;54.04
56689;BME280;42565;53.342;-1.534;2023-05-21T03:01:39;99856.75;;;12.07;54.15
56689;BME280;42565;53.342;-1.534;2023-05-21T03:04:06;99852.52;;;11.84;54.15
56689;BME280;42565;53.342;-1.534;2023-05-21T03:06:34;99852.54;;;11.48;54.80
56689;BME280;42565;53.342;-1.534;2023-05-21T03:09:01;99855.14;;;11.99;54.56
56689;BME280;42565;53.342;-1.534;2023-05-21T03:11:27;99852.95;;;11.16;55.22
56689;BME280;42565;53.342;-1.534;2023-05-21T03:13:54;99852.47;;;11.39;55.18
56689;BME280;42565;53.342;-1.534;2023-05-21T03:16:21;99855.07;;;11.35;54.64
56689;BME280;42565;53.342;-1.534;2023-05-21T03:18:48;99852.29;;;11.57;54.01
56689;BME280;42565;53.342;-1.534;2023-05-21T03:21:14;99852.10;;;11.32;53.57
56689;BME280;42565;53.342;-1.534;2023-05-21T03:23:41;99850.12;;;11.64;53.10
56689;BME280;42565;53.342;-1.534;2023-05-21T03:26:09;99842.68;;;11.74;53.62
56689;BME280;42565;53.342;-1.534;2023-05-21T03:28:36;99839.33;;;10.93;54.92
56689;BME280;42565;53.342;-1.534;2023-05-21T03:31:03;99841.03;;;10.90;55.55
56689;BME280;42565;53.342;-1.534;2023-05-21T03:33:31;99837.53;;;11.05;55.44
56689;BME280;42565;53.342;-1.534;2023-05-21T03:35:57;99834.17;;;10.99;55.11
56689;BME280;42565;53.342;-1.534;2023-05-21T03:38:24;99831.56;;;11.42;53.99
56689;BME280;42565;53.342;-1.534;2023-05-21T03:40:52;99831.82;;;11.58;53.90
56689;BME280;42565;53.342;-1.534;2023-05-21T03:43:19;99834.36;;;11.44;54.86
56689;BME280;42565;53.342;-1.534;2023-05-21T03:45:47;99831.89;;;11.12;55.39
56689;BME280;42565;53.342;-1.534;2023-05-21T03:48:14;99830.61;;;10.83;55.07
56689;BME280;42565;53.342;-1.534;2023-05-21T03:50:42;99834.35;;;11.66;53.72
56689;BME280;42565;53.342;-1.534;2023-05-21T03:53:10;99834.27;;;11.60;53.23
56689;BME280;42565;53.342;-1.534;2023-05-21T03:55:37;99831.24;;;11.37;53.75
56689;BME280;42565;53.342;-1.534;2023-05-21T03:58:04;99833.94;;;11.58;53.20
56689;BME280;42565;53.342;-1.534;2023-05-21T04:00:31;99834.95;;;11.30;53.08
56689;BME280;42565;53.342;-1.534;2023-05-21T04:02:58;99833.17;;;11.69;52.49
56689;BME280;42565;53.342;-1.534;2023-05-21T04:05:25;99835.36;;;11.73;52.35
56689;BME280;42565;53.342;-1.534;2023-05-21T04:07:51;99833.30;;;12.31;51.29
56689;BME280;42565;53.342;-1.534;2023-05-21T04:10:18;99836.90;;;12.26;50.62
56689;BME280;42565;53.342;-1.534;2023-05-21T04:12:46;99835.66;;;12.33;50.77
56689;BME280;42565;53.342;-1.534;2023-05-21T04:15:13;99839.84;;;12.39;50.82
56689;BME280;42565;53.342;-1.534;2023-05-21T04:17:40;99845.02;;;12.52;50.48
56689;BME280;42565;53.342;-1.534;2023-05-21T04:20:08;99841.88;;;12.56;49.88
56689;BME280;42565;53.342;-1.534;2023-05-21T04:22:35;99840.12;;;12.54;49.60
56689;BME280;42565;53.342;-1.534;2023-05-21T04:25:02;99835.23;;;12.53;49.56
56689;BME280;42565;53.342;-1.534;2023-05-21T04:27:29;99831.37;;;12.21;49.77
56689;BME280;42565;53.342;-1.534;2023-05-21T04:29:56;99830.93;;;12.27;49.71
56689;BME280;42565;53.342;-1.534;2023-05-21T04:32:22;99831.70;;;11.84;49.64
56689;BME280;42565;53.342;-1.534;2023-05-21T04:34:49;99831.94;;;11.85;49.70
56689;BME280;42565;53.342;-1.534;2023-05-21T04:37:16;99829.59;;;11.56;49.74
56689;BME280;42565;53.342;-1.534;2023-05-21T04:39:43;99828.85;;;12.49;48.89
56689;BME280;42565;53.342;-1.534;2023-05-21T04:42:10;99827.06;;;12.95;48.67
56689;BME280;42565;53.342;-1.534;2023-05-21T04:44:37;99830.32;;;12.84;48.35
56689;BME280;42565;53.342;-1.534;2023-05-21T04:47:05;99822.30;;;12.94;47.43
56689;BME280;42565;53.342;-1.534;2023-05-21T04:49:32;99825.05;;;12.93;47.05
56689;BME280;42565;53.342;-1.534;2023-05-21T04:51:59;99829.75;;;12.60;48.85
56689;BME280;42565;53.342;-1.534;2023-05-21T04:54:26;99830.25;;;12.52;47.97
56689;BME280;42565;53.342;-1.534;2023-05-21T04:56:53;99827.97;;;12.56;48.67
56689;BME280;42565;53.342;-1.534;2023-05-21T04:59:20;99828.32;;;12.51;48.21
56689;BME280;42565;53.342;-1.534;2023-05-21T05:01:47;99824.39;;;12.62;47.72
56689;BME280;42565;53.342;-1.534;2023-05-21T05:04:14;99825.20;;;12.24;47.78
56689;BME280;42565;53.342;-1.534;2023-05-21T05:06:41;99825.16;;;12.19;47.64
56689;BME280;42565;53.342;-1.534;2023-05-21T05:09:09;99823.50;;;12.07;47.68
56689;BME280;42565;53.342;-1.534;2023-05-21T05:11:36;99827.61;;;12.74;46.97
56689;BME280;42565;53.342;-1.534;2023-05-21T05:14:03;99827.43;;;12.90;46.84
56689;BME280;42565;53.342;-1.534;2023-05-21T05:16:31;99826.76;;;12.95;45.90
56689;BME280;42565;53.342;-1.534;2023-05-21T05:18:58;99827.45;;;13.73;45.66
56689;BME280;42565;53.342;-1.534;2023-05-21T05:21:25;99830.41;;;13.75;45.62
56689;BME280;42565;53.342;-1.534;2023-05-21T05:23:52;99828.24;;;13.78;45.66
56689;BME280;42565;53.342;-1.534;2023-05-21T05:26:18;99834.06;;;13.53;47.01
56689;BME280;42565;53.342;-1.534;2023-05-21T05:28:46;99833.21;;;12.94;48.13
56689;BME280;42565;53.342;-1.534;2023-05-21T05:31:13;99832.61;;;13.12;48.83
56689;BME280;42565;53.342;-1.534;2023-05-21T05:33:40;99830.71;;;13.38;49.26
56689;BME280;42565;53.342;-1.534;2023-05-21T05:36:07;99835.14;;;12.90;50.79
56689;BME280;42565;53.342;-1.534;2023-05-21T05:38:35;99827.59;;;13.14;50.78
56689;BME280;42565;53.342;-1.534;2023-05-21T05:41:01;99831.12;;;13.16;50.38
56689;BME280;42565;53.342;-1.534;2023-05-21T05:43:29;99832.19;;;13.15;50.69
56689;BME280;42565;53.342;-1.534;2023-05-21T05:45:56;99829.86;;;13.21;50.90
56689;BME280;42565;53.342;-1.534;2023-05-21T05:48:23;99826.95;;;13.14;50.00
56689;BME280;42565;53.342;-1.534;2023-05-21T05:50:50;99824.67;;;13.57;50.19
56689;BME280;42565;53.342;-1.534;2023-05-21T05:53:17;99826.30;;;13.08;49.24
56689;BME280;42565;53.342;-1.534;2023-05-21T05:55:44;99828.62;;;13.07;49.06
56689;BME280;42565;53.342;-1.534;2023-05-21T05:58:11;99831.02;;;13.26;48.14
56689;BME280;42565;53.342;-1.534;2023-05-21T06:00:38;99833.94;;;13.61;49.64
56689;BME280;42565;53.342;-1.534;2023-05-21T06:03:05;99835.93;;;13.40;50.66
56689;BME280;42565;53.342;-1.534;2023-05-21T06:05:31;99842.60;;;13.51;51.21
56689;BME280;42565;53.342;-1.534;2023-05-21T06:07:59;99841.08;;;14.05;50.02
56689;BME280;42565;53.342;-1.534;2023-05-21T06:10:25;99841.21;;;13.86;50.34
56689;BME280;42565;53.342;-1.534;2023-05-21T06:12:52;99843.49;;;13.52;49.83
56689;BME280;42565;53.342;-1.534;2023-05-21T06:15:19;99844.24;;;13.47;48.65
56689;BME280;42565;53.342;-1.534;2023-05-21T06:17:46;99842.86;;;13.75;47.80
56689;BME280;42565;53.342;-1.534;2023-05-21T06:20:14;99843.02;;;14.14;45.98
56689;BME280;42565;53.342;-1.534;2023-05-21T06:22:41;99845.04;;;14.69;46.11
56689;BME280;42565;53.342;-1.534;2023-05-21T06:25:09;99849.45;;;14.45;44.84
56689;BME280;42565;53.342;-1.534;2023-05-21T06:27:36;99850.76;;;14.70;44.91
56689;BME280;42565;53.342;-1.534;2023-05-21T06:30:05;99852.93;;;14.56;43.94
56689;BME280;42565;53.342;-1.534;2023-05-21T06:32:32;99856.16;;;14.73;43.44
56689;BME280;42565;53.342;-1.534;2023-05-21T06:34:59;99856.04;;;15.07;43.00
56689;BME280;42565;53.342;-1.534;2023-05-21T06:37:26;99857.56;;;15.15;43.53
56689;BME280;42565;53.342;-1.534;2023-05-21T06:39:53;99855.93;;;15.27;42.53
56689;BME280;42565;53.342;-1.534;2023-05-21T06:42:20;99856.57;;;15.08;42.75
56689;BME280;42565;53.342;-1.534;2023-05-21T06:44:46;99862.53;;;14.78;43.83
56689;BME280;42565;53.342;-1.534;2023-05-21T06:47:14;99861.83;;;14.59;43.43
56689;BME280;42565;53.342;-1.534;2023-05-21T06:49:41;99866.83;;;15.25;42.39
56689;BME280;42565;53.342;-1.534;2023-05-21T06:52:07;99863.18;;;15.44;42.06
56689;BME280;42565;53.342;-1.534;2023-05-21T06:54:35;99869.08;;;15.23;42.74
56689;BME280;42565;53.342;-1.534;2023-05-21T06:57:02;99864.35;;;15.15;41.31
56689;BME280;42565;53.342;-1.534;2023-05-21T06:59:30;99865.68;;;14.80;42.69
56689;BME280;42565;53.342;-1.534;2023-05-21T07:01:56;99870.38;;;14.92;42.48
56689;BME280;42565;53.342;-1.534;2023-05-21T07:04:23;99869.23;;;15.40;41.34
56689;BME280;42565;53.342;-1.534;2023-05-21T07:06:51;99872.76;;;15.54;40.65
56689;BME280;42565;53.342;-1.534;2023-05-21T07:09:17;99868.39;;;15.44;39.59
56689;BME280;42565;53.342;-1.534;2023-05-21T07:11:44;99867.37;;;15.32;40.39
56689;BME280;42565;53.342;-1.534;2023-05-21T07:14:12;99867.19;;;15.00;40.55
56689;BME280;42565;53.342;-1.534;2023-05-21T07:16:39;99867.26;;;14.62;40.35
56689;BME280;42565;53.342;-1.534;2023-05-21T07:19:06;99868.31;;;14.09;40.79
56689;BME280;42565;53.342;-1.534;2023-05-21T07:21:32;99869.41;;;14.24;39.73
56689;BME280;42565;53.342;-1.534;2023-05-21T07:23:59;99861.07;;;15.38;40.87
56689;BME280;42565;53.342;-1.534;2023-05-21T07:26:26;99863.47;;;15.76;40.16
56689;BME280;42565;53.342;-1.534;2023-05-21T07:28:53;99864.11;;;15.40;38.93
56689;BME280;42565;53.342;-1.534;2023-05-21T07:31:20;99866.66;;;15.24;40.58
56689;BME280;42565;53.342;-1.534;2023-05-21T07:33:47;99865.89;;;15.34;38.96
56689;BME280;42565;53.342;-1.534;2023-05-21T07:36:14;99870.40;;;14.56;38.21
56689;BME280;42565;53.342;-1.534;2023-05-21T07:38:42;99868.53;;;15.49;40.17
56689;BME280;42565;53.342;-1.534;2023-05-21T07:41:10;99865.43;;;15.32;38.82
56689;BME280;42565;53.342;-1.534;2023-05-21T07:43:37;99867.95;;;15.58;39.44
56689;BME280;42565;53.342;-1.534;2023-05-21T07:46:05;99870.18;;;16.35;37.13
56689;BME280;42565;53.342;-1.534;2023-05-21T07:48:32;99871.34;;;16.45;38.68
56689;BME280;42565;53.342;-1.534;2023-05-21T07:50:59;99871.58;;;16.94;36.32
56689;BME280;42565;53.342;-1.534;2023-05-21T07:53:26;99867.92;;;16.68;36.35
56689;BME280;42565;53.342;-1.534;2023-05-21T07:55:53;99873.08;;;17.54;35.93
56689;BME280;42565;53.342;-1.534;2023-05-21T07:58:21;99870.95;;;16.97;36.12
56689;BME280;42565;53.342;-1.534;2023-05-21T08:00:48;99869.79;;;17.14;36.67
56689;BME280;42565;53.342;-1.534;2023-05-21T08:03:16;99874.55;;;16.63;35.43
56689;BME280;42565;53.342;-1.534;2023-05-21T08:05:44;99872.43;;;16.60;35.97
56689;BME280;42565;53.342;-1.534;2023-05-21T08:08:11;99872.64;;;16.51;37.35
56689;BME280;42565;53.342;-1.534;2023-05-21T08:10:38;99870.98;;;17.30;37.13
56689;BME280;42565;53.342;-1.534;2023-05-21T08:13:05;99870.47;;;16.82;35.39
56689;BME280;42565;53.342;-1.534;2023-05-21T08:15:32;99868.42;;;17.24;36.79
56689;BME280;42565;53.342;-1.534;2023-05-21T08:17:59;99862.10;;;17.09;35.21
56689;BME280;42565;53.342;-1.534;2023-05-21T08:20:26;99864.30;;;17.48;36.17
56689;BME280;42565;53.342;-1.534;2023-05-21T08:22:53;99864.88;;;17.65;34.60
56689;BME280;42565;53.342;-1.534;2023-05-21T08:25:19;99862.90;;;16.96;34.40
56689;BME280;42565;53.342;-1.534;2023-05-21T08:27:46;99861.68;;;17.22;33.86
56689;BME280;42565;53.342;-1.534;2023-05-21T08:30:13;99862.95;;;17.15;33.87
56689;BME280;42565;53.342;-1.534;2023-05-21T08:32:41;99864.51;;;18.08;36.27
56689;BME280;42565;53.342;-1.534;2023-05-21T08:35:08;99860.29;;;18.13;33.37
56689;BME280;42565;53.342;-1.534;2023-05-21T08:37:35;99861.68;;;18.36;34.48
56689;BME280;42565;53.342;-1.534;2023-05-21T08:40:03;99859.93;;;18.81;34.70
56689;BME280;42565;53.342;-1.534;2023-05-21T08:42:38;99857.55;;;18.59;32.29
56689;BME280;42565;53.342;-1.534;2023-05-21T08:45:11;99859.84;;;18.67;32.23
56689;BME280;42565;53.342;-1.534;2023-05-21T08:47:41;99860.72;;;19.24;33.78
56689;BME280;42565;53.342;-1.534;2023-05-21T08:50:11;99856.90;;;18.86;31.34
56689;BME280;42565;53.342;-1.534;2023-05-21T08:52:39;99858.97;;;18.81;32.53
56689;BME280;42565;53.342;-1.534;2023-05-21T08:55:08;99861.42;;;19.00;31.55
56689;BME280;42565;53.342;-1.534;2023-05-21T08:57:35;99858.94;;;18.78;30.84
56689;BME280;42565;53.342;-1.534;2023-05-21T09:00:03;99856.84;;;18.91;31.10
56689;BME280;42565;53.342;-1.534;2023-05-21T09:02:33;99854.98;;;17.97;32.32
56689;BME280;42565;53.342;-1.534;2023-05-21T09:05:00;99856.81;;;19.09;30.43
56689;BME280;42565;53.342;-1.534;2023-05-21T09:07:28;99851.96;;;18.18;30.21
56689;BME280;42565;53.342;-1.534;2023-05-21T09:09:59;99852.07;;;18.62;30.57
56689;BME280;42565;53.342;-1.534;2023-05-21T09:12:29;99855.29;;;18.68;31.41
56689;BME280;42565;53.342;-1.534;2023-05-21T09:14:58;99849.54;;;19.33;30.50
56689;BME280;42565;53.342;-1.534;2023-05-21T09:17:26;99845.64;;;19.51;31.11
56689;BME280;42565;53.342;-1.534;2023-05-21T09:20:11;99843.83;;;20.74;30.90
56689;BME280;42565;53.342;-1.534;2023-05-21T09:22:40;99848.03;;;20.57;29.16
56689;BME280;42565;53.342;-1.534;2023-05-21T09:25:09;99843.10;;;21.01;28.42
56689;BME280;42565;53.342;-1.534;2023-05-21T09:27:37;99844.59;;;21.19;28.14
56689;BME280;42565;53.342;-1.534;2023-05-21T09:30:09;99840.08;;;20.88;28.25
56689;BME280;42565;53.342;-1.534;2023-05-21T09:32:37;99838.88;;;20.03;27.94
56689;BME280;42565;53.342;-1.534;2023-05-21T09:35:07;99842.05;;;20.32;29.48
56689;BME280;42565;53.342;-1.534;2023-05-21T09:37:39;99843.45;;;19.47;28.19
56689;BME280;42565;53.342;-1.534;2023-05-21T09:40:11;99842.29;;;20.61;28.71
56689;BME280;42565;53.342;-1.534;2023-05-21T09:42:39;99837.94;;;19.99;28.58
56689;BME280;42565;53.342;-1.534;2023-05-21T09:45:08;99835.19;;;20.96;28.49
56689;BME280;42565;53.342;-1.534;2023-05-21T09:47:40;99839.84;;;19.88;28.81
56689;BME280;42565;53.342;-1.534;2023-05-21T09:50:08;99832.53;;;20.82;29.61
56689;BME280;42565;53.342;-1.534;2023-05-21T09:52:35;99830.15;;;20.46;28.45
56689;BME280;42565;53.342;-1.534;2023-05-21T09:55:03;99830.01;;;21.12;27.07
56689;BME280;42565;53.342;-1.534;2023-05-21T09:57:30;99827.03;;;21.00;27.16
56689;BME280;42565;53.342;-1.534;2023-05-21T09:59:58;99825.72;;;20.44;25.86
56689;BME280;42565;53.342;-1.534;2023-05-21T10:02:25;99830.76;;;18.84;29.41
56689;BME280;42565;53.342;-1.534;2023-05-21T10:04:53;99826.53;;;20.42;30.24
56689;BME280;42565;53.342;-1.534;2023-05-21T10:07:21;99828.95;;;19.84;28.87
56689;BME280;42565;53.342;-1.534;2023-05-21T10:09:48;99821.98;;;20.33;27.53
56689;BME280;42565;53.342;-1.534;2023-05-21T10:12:17;99818.75;;;19.90;29.03
56689;BME280;42565;53.342;-1.534;2023-05-21T10:14:47;99812.88;;;21.32;27.76
56689;BME280;42565;53.342;-1.534;2023-05-21T10:17:15;99813.12;;;21.44;29.25
56689;BME280;42565;53.342;-1.534;2023-05-21T10:19:43;99814.40;;;21.88;27.48
56689;BME280;42565;53.342;-1.534;2023-05-21T10:22:12;99813.85;;;20.91;26.10
56689;BME280;42565;53.342;-1.534;2023-05-21T10:24:40;99815.75;;;21.94;26.43
56689;BME280;42565;53.342;-1.534;2023-05-21T10:27:10;99813.46;;;22.25;27.66
56689;BME280;42565;53.342;-1.534;2023-05-21T10:29:37;99814.02;;;21.34;26.37
56689;BME280;42565;53.342;-1.534;2023-05-21T10:32:06;99811.14;;;22.45;27.62
56689;BME280;42565;53.342;-1.534;2023-05-21T10:34:35;99813.21;;;22.18;26.17
56689;BME280;42565;53.342;-1.534;2023-05-21T10:37:03;99815.67;;;22.14;26.29
56689;BME280;42565;53.342;-1.534;2023-05-21T10:39:33;99818.46;;;21.99;25.38
56689;BME280;42565;53.342;-1.534;2023-05-21T10:42:11;99813.33;;;22.38;25.50
56689;BME280;42565;53.342;-1.534;2023-05-21T10:44:53;99814.94;;;22.27;24.65
56689;BME280;42565;53.342;-1.534;2023-05-21T10:47:41;99811.28;;;22.72;26.36
56689;BME280;42565;53.342;-1.534;2023-05-21T10:50:25;99805.12;;;23.14;25.65
56689;BME280;42565;53.342;-1.534;2023-05-21T10:53:06;99810.28;;;21.70;27.64
56689;BME280;42565;53.342;-1.534;2023-05-21T10:55:46;99810.37;;;22.79;25.10
56689;BME280;42565;53.342;-1.534;2023-05-21T10:59:32;99810.31;;;21.25;26.57
56689;BME280;42565;53.342;-1.534;2023-05-21T11:02:03;99802.17;;;21.07;27.22
56689;BME280;42565;53.342;-1.534;2023-05-21T11:04:32;99799.68;;;22.45;27.79
56689;BME280;42565;53.342;-1.534;2023-05-21T11:06:59;99797.80;;;21.30;26.36
56689;BME280;42565;53.342;-1.534;2023-05-21T11:09:27;99795.67;;;20.37;28.36
56689;BME280;42565;53.342;-1.534;2023-05-21T11:11:57;99801.63;;;21.48;29.59
56689;BME280;42565;53.342;-1.534;2023-05-21T11:14:27;99795.19;;;20.10;25.78
56689;BME280;42565;53.342;-1.534;2023-05-21T11:16:54;99793.72;;;21.51;26.69
56689;BME280;42565;53.342;-1.534;2023-05-21T11:19:33;99789.82;;;21.41;26.86
56689;BME280;42565;53.342;-1.534;2023-05-21T11:22:00;99784.99;;;21.99;25.56
56689;BME280;42565;53.342;-1.534;2023-05-21T11:24:31;99782.84;;;20.19;25.92
56689;BME280;42565;53.342;-1.534;2023-05-21T11:27:00;99783.53;;;20.81;26.97
56689;BME280;42565;53.342;-1.534;2023-05-21T11:29:35;99788.07;;;21.50;25.96
56689;BME280;42565;53.342;-1.534;2023-05-21T11:32:02;99787.48;;;22.13;25.94
56689;BME280;42565;53.342;-1.534;2023-05-21T11:34:36;99779.77;;;22.16;26.00
56689;BME280;42565;53.342;-1.534;2023-05-21T11:37:37;99787.41;;;23.07;26.40
56689;BME280;42565;53.342;-1.534;2023-05-21T11:40:37;99783.35;;;23.23;25.76
56689;BME280;42565;53.342;-1.534;2023-05-21T11:43:17;99783.09;;;22.82;24.80
56689;BME280;42565;53.342;-1.534;2023-05-21T11:45:45;99782.92;;;23.85;24.41
56689;BME280;42565;53.342;-1.534;2023-05-21T11:48:13;99786.75;;;23.42;23.52
56689;BME280;42565;53.342;-1.534;2023-05-21T11:50:41;99782.44;;;23.06;24.11
56689;BME280;42565;53.342;-1.534;2023-05-21T11:53:08;99783.09;;;23.42;23.45
56689;BME280;42565;53.342;-1.534;2023-05-21T11:55:37;99784.21;;;24.39;22.62
56689;BME280;42565;53.342;-1.534;2023-05-21T11:58:06;99784.46;;;24.13;22.63
56689;BME280;42565;53.342;-1.534;2023-05-21T12:00:38;99784.81;;;23.04;21.51
56689;BME280;42565;53.342;-1.534;2023-05-21T12:03:05;99784.29;;;22.64;23.17
56689;BME280;42565;53.342;-1.534;2023-05-21T12:05:43;99786.50;;;22.89;23.75
56689;BME280;42565;53.342;-1.534;2023-05-21T12:08:11;99785.38;;;22.45;23.25
56689;BME280;42565;53.342;-1.534;2023-05-21T12:10:38;99782.97;;;22.75;23.96
56689;BME280;42565;53.342;-1.534;2023-05-21T12:13:05;99784.66;;;22.76;25.20
56689;BME280;42565;53.342;-1.534;2023-05-21T12:15:33;99786.75;;;22.03;25.37
56689;BME280;42565;53.342;-1.534;2023-05-21T12:18:01;99781.50;;;23.06;23.85
56689;BME280;42565;53.342;-1.534;2023-05-21T12:20:28;99774.24;;;23.85;24.11
56689;BME280;42565;53.342;-1.534;2023-05-21T12:22:56;99771.79;;;24.44;22.03
56689;BME280;42565;53.342;-1.534;2023-05-21T12:25:24;99769.99;;;24.93;22.93
56689;BME280;42565;53.342;-1.534;2023-05-21T12:27:51;99770.75;;;24.23;22.49
56689;BME280;42565;53.342;-1.534;2023-05-21T12:30:19;99774.70;;;24.10;22.13
56689;BME280;42565;53.342;-1.534;2023-05-21T12:32:47;99771.97;;;24.48;23.71
56689;BME280;42565;53.342;-1.534;2023-05-21T12:35:22;99767.87;;;23.75;23.07
56689;BME280;42565;53.342;-1.534;2023-05-21T12:37:49;99760.77;;;24.85;21.70
56689;BME280;42565;53.342;-1.534;2023-05-21T12:40:16;99760.02;;;23.59;23.10
56689;BME280;42565;53.342;-1.534;2023-05-21T12:42:44;99766.66;;;22.86;23.93
56689;BME280;42565;53.342;-1.534;2023-05-21T12:45:11;99767.79;;;22.60;24.69
56689;BME280;42565;53.342;-1.534;2023-05-21T12:47:39;99774.39;;;22.59;24.27
56689;BME280;42565;53.342;-1.534;2023-05-21T12:50:08;99772.90;;;21.43;26.69
56689;BME280;42565;53.342;-1.534;2023-05-21T12:52:35;99768.81;;;22.64;23.48
56689;BME280;42565;53.342;-1.534;2023-05-21T12:55:04;99766.14;;;21.83;24.04
56689;BME280;42565;53.342;-1.534;2023-05-21T12:57:35;99766.88;;;21.95;23.97